Trawscoed, United Kingdom
Current Conditions -  °F | °C
As of 10:50 AM on Monday 22 Dec 2014 (Local Time) from EGOP Reporting Station
Overcast Overcast  
Wind Chill: 54°   Ceiling: 1300
Heat Index: 54°   Visibility: 4mi
Dew Point: 50°   Wind: 26mph
Humidity: 88%   Direction: 250°WSW
Pressure: 30.09"   Gusts: NA
Location:  52.35°N, 3.95°W
Report Text: EGOP 221050Z AUTO 25023KT 7000 // OVC013/// 12/10 Q1019
Loading
Personal Weather Stations






























Interactive Weather Map New forecast layout! Learn more

10-Day Weather Forecast

Advertisements
Track Severe Weather on mobile